createdAt,value
2023-01-03T00:00:36.518Z,10.50
2023-01-03T00:03:09.054Z,10.50
2023-01-03T00:05:43.000Z,10.50
2023-01-03T00:08:15.868Z,10.50
2023-01-03T00:10:48.131Z,10.50
2023-01-03T00:13:20.471Z,10.40
2023-01-03T00:15:52.876Z,10.50
2023-01-03T00:18:26.887Z,10.50
2023-01-03T00:21:04.325Z,10.50
2023-01-03T00:23:36.763Z,10.40
2023-01-03T00:26:11.093Z,10.50
2023-01-03T00:28:43.659Z,10.50
2023-01-03T00:31:16.008Z,10.50
2023-01-03T00:33:48.456Z,10.50
2023-01-03T00:36:20.766Z,10.50
2023-01-03T00:38:53.950Z,10.40
2023-01-03T00:41:26.600Z,10.40
2023-01-03T00:43:58.977Z,10.40
2023-01-03T00:46:31.295Z,10.40
2023-01-03T00:49:04.613Z,10.40
2023-01-03T00:51:38.313Z,10.40
2023-01-03T00:54:11.647Z,10.40
2023-01-03T00:56:45.432Z,10.40
2023-01-03T00:59:18.960Z,10.50
2023-01-03T01:01:53.176Z,10.50
2023-01-03T01:04:26.562Z,10.50
2023-01-03T01:07:00.373Z,10.50
2023-01-03T01:09:34.585Z,10.50
2023-01-03T01:12:07.543Z,10.40
2023-01-03T01:14:39.949Z,10.30
2023-01-03T01:17:12.229Z,10.40
2023-01-03T01:19:44.867Z,10.40
2023-01-03T01:22:17.246Z,10.30
2023-01-03T01:24:49.631Z,10.30
2023-01-03T01:27:22.478Z,10.40
2023-01-03T01:29:54.936Z,10.40
2023-01-03T01:32:27.350Z,10.30
2023-01-03T01:34:59.787Z,10.30
2023-01-03T01:37:32.015Z,10.30
2023-01-03T01:40:04.764Z,10.30
2023-01-03T01:42:52.115Z,10.30
2023-01-03T01:45:24.552Z,10.30
2023-01-03T01:48:00.107Z,10.40
2023-01-03T01:50:39.449Z,10.40
2023-01-03T01:53:14.799Z,10.40
2023-01-03T01:55:49.678Z,10.30
2023-01-03T01:58:23.629Z,10.40
2023-01-03T02:00:56.135Z,10.40
2023-01-03T02:03:28.737Z,10.40
2023-01-03T02:06:02.081Z,10.40
2023-01-03T02:08:34.456Z,10.40
2023-01-03T02:11:22.502Z,10.40
2023-01-03T02:14:02.878Z,10.30
2023-01-03T02:16:48.762Z,10.30
2023-01-03T02:19:24.538Z,10.30
2023-01-03T02:21:58.603Z,10.30
2023-01-03T02:24:31.364Z,10.30
2023-01-03T02:27:17.660Z,10.40
2023-01-03T02:30:05.620Z,10.40
2023-01-03T02:32:45.552Z,10.40
2023-01-03T02:35:25.495Z,10.40
2023-01-03T02:38:03.019Z,10.40
2023-01-03T02:40:39.733Z,10.40
2023-01-03T02:43:18.448Z,10.30
2023-01-03T02:46:06.308Z,10.30
2023-01-03T02:48:46.783Z,10.30
2023-01-03T02:51:20.773Z,10.30
2023-01-03T02:53:53.212Z,10.30
2023-01-03T02:56:30.828Z,10.30
2023-01-03T02:59:05.952Z,10.30
2023-01-03T03:01:45.606Z,10.30
2023-01-03T03:04:19.200Z,10.30
2023-01-03T03:07:02.460Z,10.40
2023-01-03T03:09:55.114Z,10.30
2023-01-03T03:12:45.405Z,10.30
2023-01-03T03:15:24.334Z,10.30
2023-01-03T03:18:00.599Z,10.30
2023-01-03T03:20:48.703Z,10.20
2023-01-03T03:23:40.135Z,10.30
2023-01-03T03:26:15.326Z,10.30
2023-01-03T03:28:50.365Z,10.30
2023-01-03T03:31:26.766Z,10.20
2023-01-03T03:34:09.357Z,10.20
2023-01-03T03:36:58.249Z,10.20
2023-01-03T03:39:47.135Z,10.20
2023-01-03T03:42:41.995Z,10.20
2023-01-03T03:45:20.980Z,10.20
2023-01-03T03:47:58.730Z,10.20
2023-01-03T03:50:41.893Z,10.20
2023-01-03T03:53:14.920Z,10.20
2023-01-03T03:55:47.594Z,10.20
2023-01-03T03:58:23.626Z,10.10
2023-01-03T04:00:57.294Z,10.20
2023-01-03T04:03:30.657Z,10.10
2023-01-03T04:06:12.720Z,10.20
2023-01-03T04:08:45.400Z,10.10
2023-01-03T04:11:17.850Z,10.10
2023-01-03T04:13:50.274Z,10.20
2023-01-03T04:16:22.987Z,10.20
2023-01-03T04:18:55.378Z,10.20
2023-01-03T04:21:27.686Z,10.20
2023-01-03T04:24:00.124Z,10.10
2023-01-03T04:26:34.200Z,10.20
2023-01-03T04:29:06.601Z,10.20
2023-01-03T04:31:39.095Z,10.10
2023-01-03T04:34:11.563Z,10.10
2023-01-03T04:36:43.993Z,10.10
2023-01-03T04:39:16.371Z,10.10
2023-01-03T04:41:48.700Z,10.10
2023-01-03T04:44:21.110Z,10.10
2023-01-03T04:46:53.769Z,10.00
2023-01-03T04:49:26.106Z,10.00
2023-01-03T04:51:58.486Z,10.00
2023-01-03T04:54:31.013Z,10.00
2023-01-03T04:57:03.453Z,10.00
2023-01-03T04:59:36.323Z,10.10
2023-01-03T05:02:08.896Z,10.10
2023-01-03T05:04:41.642Z,10.10
2023-01-03T05:07:14.104Z,10.10
2023-01-03T05:09:46.687Z,10.10
2023-01-03T05:12:19.038Z,10.10
2023-01-03T05:14:51.751Z,10.00
2023-01-03T05:17:24.051Z,10.10
2023-01-03T05:20:11.537Z,10.10
2023-01-03T05:22:59.780Z,10.10
2023-01-03T05:25:47.471Z,10.10
2023-01-03T05:28:21.455Z,10.10
2023-01-03T05:30:53.868Z,10.10
2023-01-03T05:33:26.261Z,10.10
2023-01-03T05:35:58.693Z,10.10
2023-01-03T05:38:31.145Z,10.10
2023-01-03T05:41:03.677Z,10.10
2023-01-03T05:43:36.246Z,10.10
2023-01-03T05:46:08.628Z,10.10
2023-01-03T05:48:41.172Z,10.00
2023-01-03T05:51:14.806Z,10.10
2023-01-03T05:53:47.139Z,10.10
2023-01-03T05:56:19.446Z,10.10
2023-01-03T05:58:51.859Z,10.10
2023-01-03T06:01:26.982Z,10.10
2023-01-03T06:03:59.584Z,10.10
2023-01-03T06:06:32.102Z,10.10
2023-01-03T06:09:04.413Z,10.10
2023-01-03T06:11:36.806Z,10.10
2023-01-03T06:14:09.119Z,10.10
2023-01-03T06:16:56.651Z,10.10
2023-01-03T06:19:29.837Z,10.10
2023-01-03T06:22:07.047Z,10.10
2023-01-03T06:24:44.759Z,10.00
2023-01-03T06:27:17.129Z,10.00
2023-01-03T06:29:49.505Z,10.00
2023-01-03T06:32:22.042Z,10.00
2023-01-03T06:34:54.405Z,10.00
2023-01-03T06:37:26.916Z,10.00
2023-01-03T06:39:59.277Z,10.00
2023-01-03T06:42:40.504Z,10.00
2023-01-03T06:45:30.250Z,10.00
2023-01-03T06:48:20.012Z,10.00
2023-01-03T06:51:00.630Z,10.10
2023-01-03T06:53:34.858Z,10.00
2023-01-03T06:56:07.285Z,10.10
2023-01-03T06:58:39.548Z,10.10
2023-01-03T07:01:14.105Z,10.00
2023-01-03T07:03:46.859Z,10.10
2023-01-03T07:06:19.257Z,10.00
2023-01-03T07:08:51.867Z,10.00
2023-01-03T07:11:24.420Z,10.00
2023-01-03T07:14:00.229Z,10.00
2023-01-03T07:16:34.691Z,10.00
2023-01-03T07:19:08.081Z,10.00
2023-01-03T07:21:41.037Z,10.00
2023-01-03T07:24:14.680Z,10.00
2023-01-03T07:26:47.086Z,10.00
2023-01-03T07:29:19.680Z,10.00
2023-01-03T07:31:52.144Z,10.00
2023-01-03T07:34:24.609Z,10.00
2023-01-03T07:36:56.910Z,10.00
2023-01-03T07:39:29.310Z,10.00
2023-01-03T07:42:16.837Z,10.10
2023-01-03T07:44:49.449Z,10.10
2023-01-03T07:47:21.948Z,10.10
2023-01-03T07:49:54.438Z,10.10
2023-01-03T07:52:28.002Z,10.10
2023-01-03T07:55:00.558Z,10.10
2023-01-03T07:57:32.762Z,10.10
2023-01-03T08:00:05.462Z,11.20
2023-01-03T08:02:44.980Z,10.20
2023-01-03T08:05:17.795Z,10.10
2023-01-03T08:07:51.077Z,10.10
2023-01-03T08:10:38.661Z,10.10
2023-01-03T08:13:18.592Z,10.10
2023-01-03T08:15:52.727Z,10.10
2023-01-03T08:18:26.478Z,10.10
2023-01-03T08:20:59.051Z,10.10
2023-01-03T08:23:31.514Z,10.10
2023-01-03T08:26:05.372Z,10.10
2023-01-03T08:28:38.543Z,10.10
2023-01-03T08:31:13.208Z,10.20
2023-01-03T08:33:49.321Z,10.20
2023-01-03T08:36:22.663Z,10.20
2023-01-03T08:38:58.332Z,10.20
2023-01-03T08:41:32.330Z,10.20
2023-01-03T08:44:06.615Z,10.30
2023-01-03T08:46:41.576Z,10.30
2023-01-03T08:49:14.204Z,10.30
2023-01-03T08:51:46.748Z,10.30
2023-01-03T08:54:19.198Z,10.30
2023-01-03T08:56:51.745Z,10.30
2023-01-03T08:59:24.125Z,10.30
2023-01-03T09:02:02.243Z,10.40
2023-01-03T09:04:34.880Z,10.40
2023-01-03T09:07:07.359Z,10.30
2023-01-03T09:09:39.828Z,10.30
2023-01-03T09:12:12.512Z,10.30
2023-01-03T09:14:44.895Z,10.30
2023-01-03T09:17:17.442Z,10.30
2023-01-03T09:19:50.056Z,10.40
2023-01-03T09:22:22.508Z,10.40
2023-01-03T09:24:55.708Z,10.50
2023-01-03T09:27:28.221Z,10.50
2023-01-03T09:30:00.743Z,10.50
2023-01-03T09:32:33.417Z,10.50
2023-01-03T09:35:06.044Z,10.50
2023-01-03T09:37:39.846Z,10.50
2023-01-03T09:40:16.270Z,10.50
2023-01-03T09:43:04.405Z,10.50
2023-01-03T09:45:38.976Z,10.40
2023-01-03T09:48:14.906Z,10.40
2023-01-03T09:53:57.169Z,10.50
2023-01-03T09:56:33.114Z,10.40
2023-01-03T09:59:31.196Z,10.50
2023-01-03T10:02:22.364Z,10.50
2023-01-03T10:05:12.792Z,10.50
2023-01-03T10:08:02.219Z,10.50
2023-01-03T10:10:49.817Z,10.50
2023-01-03T10:13:23.070Z,10.50
2023-01-03T10:16:11.211Z,10.50
2023-01-03T10:18:44.104Z,10.50
2023-01-03T10:21:24.979Z,10.60
2023-01-03T10:23:57.373Z,10.60
2023-01-03T10:26:33.671Z,10.70
2023-01-03T10:29:06.306Z,10.70
2023-01-03T10:31:58.798Z,10.70
2023-01-03T10:34:31.192Z,10.60
2023-01-03T10:37:10.636Z,10.70
2023-01-03T10:39:43.293Z,10.70
2023-01-03T10:42:18.750Z,10.70
2023-01-03T10:45:01.495Z,10.80
2023-01-03T10:47:34.502Z,10.70
2023-01-03T10:50:07.383Z,10.80
2023-01-03T10:52:41.060Z,10.70
2023-01-03T10:55:14.879Z,10.70
2023-01-03T10:58:03.437Z,10.70
2023-01-03T11:00:37.060Z,10.70
2023-01-03T11:03:10.530Z,10.70
2023-01-03T11:05:44.997Z,10.70
2023-01-03T11:08:21.056Z,10.70
2023-01-03T11:10:58.257Z,10.70
2023-01-03T11:13:31.142Z,10.80
2023-01-03T11:16:04.295Z,10.70
2023-01-03T11:18:36.816Z,10.70
2023-01-03T11:21:13.297Z,10.70
2023-01-03T11:24:01.723Z,10.70
2023-01-03T11:26:43.524Z,10.70
2023-01-03T11:29:32.308Z,10.70
2023-01-03T11:32:13.131Z,10.70
2023-01-03T11:38:08.952Z,10.80
2023-01-03T11:40:49.483Z,10.80
2023-01-03T11:43:31.396Z,10.80
2023-01-03T11:46:18.669Z,10.80
2023-01-03T11:48:52.470Z,10.90
2023-01-03T11:51:41.111Z,10.90
2023-01-03T11:54:14.899Z,10.90
2023-01-03T11:56:47.671Z,10.90
2023-01-03T11:59:35.147Z,10.90
2023-01-03T12:02:22.498Z,10.90
2023-01-03T12:05:06.482Z,10.90
2023-01-03T12:07:48.811Z,10.90
2023-01-03T12:10:25.023Z,11.00
2023-01-03T12:13:13.180Z,11.00
2023-01-03T12:16:14.060Z,11.00
2023-01-03T12:19:18.170Z,11.00
2023-01-03T12:21:54.070Z,11.00
2023-01-03T12:24:26.765Z,10.90
2023-01-03T12:27:12.195Z,10.90
2023-01-03T12:29:55.398Z,10.90
2023-01-03T12:32:32.198Z,10.80
2023-01-03T12:35:14.712Z,10.90
2023-01-03T12:37:48.921Z,10.90
2023-01-03T12:40:36.481Z,11.00
2023-01-03T12:43:12.381Z,11.00
2023-01-03T12:45:49.153Z,11.00
2023-01-03T12:48:24.991Z,11.00
2023-01-03T12:50:57.540Z,11.00
2023-01-03T12:53:35.487Z,11.00
2023-01-03T12:56:11.190Z,11.00
2023-01-03T12:58:59.736Z,11.00
2023-01-03T13:01:54.355Z,11.10
2023-01-03T13:04:42.418Z,11.10
2023-01-03T13:07:18.455Z,11.10
2023-01-03T13:10:01.263Z,11.20
2023-01-03T13:12:35.682Z,11.20
2023-01-03T13:15:18.400Z,11.20
2023-01-03T13:17:51.097Z,11.20
2023-01-03T13:20:30.831Z,11.10
2023-01-03T13:23:18.274Z,11.10
2023-01-03T13:26:06.283Z,11.20
2023-01-03T13:28:39.258Z,11.10
2023-01-03T13:31:15.638Z,11.10
2023-01-03T13:33:49.505Z,11.10
2023-01-03T13:36:22.670Z,11.10
2023-01-03T13:38:55.089Z,11.10
2023-01-03T13:41:30.975Z,11.00
2023-01-03T13:44:19.852Z,11.00
2023-01-03T13:46:52.608Z,11.00
2023-01-03T13:49:26.851Z,11.00
2023-01-03T13:51:59.759Z,11.10
2023-01-03T13:54:36.801Z,11.10
2023-01-03T13:57:29.002Z,11.20
2023-01-03T14:00:02.073Z,11.20
2023-01-03T14:02:57.539Z,11.20
2023-01-03T14:05:45.828Z,11.10
2023-01-03T14:08:19.534Z,11.10
2023-01-03T14:10:52.275Z,11.00
2023-01-03T14:13:32.568Z,11.00
2023-01-03T14:16:13.967Z,11.00
2023-01-03T14:18:48.039Z,11.00
2023-01-03T14:21:25.965Z,11.00
2023-01-03T14:24:01.303Z,11.00
2023-01-03T14:26:34.614Z,10.90
2023-01-03T14:29:09.566Z,10.90
2023-01-03T14:31:45.295Z,10.90
2023-01-03T14:34:22.374Z,10.90
2023-01-03T14:37:00.210Z,10.80
2023-01-03T14:42:06.195Z,10.90
2023-01-03T14:44:38.552Z,10.90
2023-01-03T14:47:14.961Z,10.90
2023-01-03T14:49:48.256Z,10.90
2023-01-03T14:52:29.719Z,10.90
2023-01-03T14:55:04.867Z,10.90
2023-01-03T14:57:39.250Z,10.90
2023-01-03T15:00:16.570Z,11.00
2023-01-03T15:02:49.716Z,10.90
2023-01-03T15:05:29.538Z,10.90
2023-01-03T15:08:17.287Z,10.90
2023-01-03T15:10:59.932Z,10.90
2023-01-03T15:13:35.452Z,10.80
2023-01-03T15:16:20.594Z,10.90
2023-01-03T15:18:59.498Z,10.90
2023-01-03T15:21:32.213Z,10.90
2023-01-03T15:24:05.562Z,10.90
2023-01-03T15:26:41.870Z,10.90
2023-01-03T15:29:15.680Z,10.90
2023-01-03T15:31:51.567Z,10.90
2023-01-03T15:34:32.216Z,10.90
2023-01-03T15:37:14.660Z,10.90
2023-01-03T15:39:48.645Z,10.90
2023-01-03T15:42:49.093Z,10.90
2023-01-03T15:45:27.666Z,10.80
2023-01-03T15:48:01.540Z,10.80
2023-01-03T15:50:39.894Z,10.80
2023-01-03T15:53:20.620Z,10.80
2023-01-03T15:55:55.772Z,10.80
2023-01-03T15:58:28.650Z,10.80
2023-01-03T16:01:01.430Z,10.80
2023-01-03T16:03:34.798Z,10.80
2023-01-03T16:06:07.261Z,10.80
2023-01-03T16:08:40.426Z,10.80
2023-01-03T16:11:19.474Z,10.80
2023-01-03T16:13:54.501Z,10.80
2023-01-03T16:16:31.375Z,10.80
2023-01-03T16:19:05.899Z,10.80
2023-01-03T16:21:38.807Z,10.80
2023-01-03T16:24:14.901Z,10.80
2023-01-03T16:26:48.856Z,10.80
2023-01-03T16:29:21.592Z,10.80
2023-01-03T16:31:54.558Z,10.80
2023-01-03T16:34:33.451Z,10.70
2023-01-03T16:37:08.821Z,10.70
2023-01-03T16:39:47.659Z,10.80
2023-01-03T16:42:28.002Z,10.80
2023-01-03T16:45:00.551Z,10.80
2023-01-03T16:47:35.183Z,10.80
2023-01-03T16:50:12.180Z,10.80
2023-01-03T16:52:46.755Z,10.80
2023-01-03T16:55:19.450Z,10.80
2023-01-03T16:57:55.013Z,10.70
2023-01-03T17:00:30.221Z,10.70
2023-01-03T17:03:03.031Z,10.70
2023-01-03T17:05:37.426Z,10.70
2023-01-03T17:08:17.505Z,10.80
2023-01-03T17:10:51.183Z,10.70
2023-01-03T17:16:40.415Z,10.80
2023-01-03T17:19:51.208Z,10.80
2023-01-03T17:22:19.663Z,10.80
2023-01-03T17:24:52.632Z,10.80
2023-01-03T17:27:31.775Z,10.80
2023-01-03T17:30:31.339Z,10.80
2023-01-03T17:33:04.615Z,10.80
2023-01-03T17:35:37.936Z,10.80
2023-01-03T17:38:25.658Z,10.80
2023-01-03T17:40:59.292Z,10.80
2023-01-03T17:43:32.824Z,10.80
2023-01-03T17:46:24.052Z,10.80
2023-01-03T17:49:13.193Z,10.80
2023-01-03T17:51:45.678Z,10.80
2023-01-03T17:54:18.725Z,10.80
2023-01-03T17:56:51.745Z,10.80
2023-01-03T17:59:24.354Z,10.80
2023-01-03T18:01:57.696Z,10.80
2023-01-03T18:04:57.707Z,10.80
2023-01-03T18:07:25.847Z,10.80
2023-01-03T18:09:58.281Z,10.80
2023-01-03T18:12:31.528Z,10.80
2023-01-03T18:15:04.229Z,10.80
2023-01-03T18:17:37.267Z,10.80
2023-01-03T18:20:12.442Z,10.70
2023-01-03T18:22:45.777Z,10.80
2023-01-03T18:25:22.643Z,10.70
2023-01-03T18:27:59.153Z,10.70
2023-01-03T18:30:31.875Z,10.70
2023-01-03T18:33:04.525Z,10.70
2023-01-03T18:35:38.292Z,10.80
2023-01-03T18:38:19.790Z,10.70
2023-01-03T18:40:54.991Z,10.70
2023-01-03T18:43:29.677Z,10.70
2023-01-03T18:46:02.376Z,10.70
2023-01-03T18:48:35.082Z,10.70
2023-01-03T18:51:09.376Z,10.70
2023-01-03T18:53:43.038Z,10.60
2023-01-03T18:56:23.830Z,10.60
2023-01-03T18:59:02.278Z,10.70
2023-01-03T19:01:35.146Z,10.70
2023-01-03T19:04:07.687Z,10.70
2023-01-03T19:06:42.851Z,10.70
2023-01-03T19:09:22.121Z,10.70
2023-01-03T19:11:54.687Z,10.70
2023-01-03T19:14:27.077Z,10.70
2023-01-03T19:17:02.148Z,10.70
2023-01-03T19:19:34.961Z,10.70
2023-01-03T19:22:16.372Z,10.70
2023-01-03T19:24:49.128Z,10.70
2023-01-03T19:27:23.838Z,10.60
2023-01-03T19:29:56.138Z,10.70
2023-01-03T19:32:29.132Z,10.60
2023-01-03T19:35:01.416Z,10.70
2023-01-03T19:37:33.762Z,10.70
2023-01-03T19:40:07.215Z,10.70
2023-01-03T19:42:56.218Z,10.60
2023-01-03T19:45:29.012Z,10.70
2023-01-03T19:48:03.190Z,10.70
2023-01-03T19:50:35.739Z,10.70
2023-01-03T19:53:08.130Z,10.60
2023-01-03T19:55:41.760Z,10.70
2023-01-03T19:58:16.532Z,10.60
2023-01-03T20:00:49.693Z,10.70
2023-01-03T20:03:27.716Z,10.60
2023-01-03T20:06:00.754Z,10.60
2023-01-03T20:08:33.249Z,10.60
2023-01-03T20:11:13.442Z,10.60
2023-01-03T20:13:45.997Z,10.60
2023-01-03T20:16:18.295Z,10.60
2023-01-03T20:18:50.908Z,10.70
2023-01-03T20:21:25.714Z,10.60
2023-01-03T20:24:01.922Z,10.70
2023-01-03T20:26:35.030Z,10.60
2023-01-03T20:29:10.126Z,10.60
2023-01-03T20:31:42.613Z,10.70
2023-01-03T20:34:15.227Z,10.70
2023-01-03T20:36:49.596Z,10.70
2023-01-03T20:39:22.631Z,10.70
2023-01-03T20:42:00.004Z,10.70
2023-01-03T20:44:36.418Z,10.70
2023-01-03T20:47:10.672Z,10.60
2023-01-03T20:49:43.118Z,10.60
2023-01-03T20:52:16.446Z,10.70
2023-01-03T20:54:48.994Z,10.70
2023-01-03T20:57:21.948Z,10.70
2023-01-03T20:59:54.863Z,10.60
2023-01-03T21:02:27.630Z,10.60
2023-01-03T21:05:00.232Z,10.60
2023-01-03T21:07:48.463Z,10.60
2023-01-03T21:10:24.678Z,10.60
2023-01-03T21:12:57.114Z,10.70
2023-01-03T21:15:31.124Z,10.70
2023-01-03T21:18:04.313Z,10.70
2023-01-03T21:20:36.974Z,10.70
2023-01-03T21:23:17.472Z,10.70
2023-01-03T21:25:50.150Z,10.70
2023-01-03T21:28:23.727Z,10.60
2023-01-03T21:31:01.303Z,10.70
2023-01-03T21:33:38.292Z,10.60
2023-01-03T21:36:15.258Z,10.60
2023-01-03T21:38:52.233Z,10.60
2023-01-03T21:41:25.987Z,10.60
2023-01-03T21:43:59.244Z,10.60
2023-01-03T21:46:31.795Z,10.60
2023-01-03T21:49:04.083Z,10.60
2023-01-03T21:51:39.194Z,10.60
2023-01-03T21:54:11.926Z,10.60
2023-01-03T21:56:46.573Z,10.50
2023-01-03T21:59:19.438Z,10.60
2023-01-03T22:02:07.601Z,10.50
2023-01-03T22:04:40.163Z,10.50
2023-01-03T22:07:12.615Z,10.50
2023-01-03T22:10:00.264Z,10.60
2023-01-03T22:12:32.984Z,10.60
2023-01-03T22:15:05.635Z,10.50
2023-01-03T22:17:38.452Z,10.50
2023-01-03T22:20:12.693Z,10.50
2023-01-03T22:22:45.468Z,10.50
2023-01-03T22:25:19.257Z,10.50
2023-01-03T22:27:54.856Z,10.50
2023-01-03T22:30:27.379Z,10.50
2023-01-03T22:32:59.796Z,10.50
2023-01-03T22:35:32.112Z,10.50
2023-01-03T22:38:04.633Z,10.50
2023-01-03T22:40:37.210Z,10.40
2023-01-03T22:43:09.496Z,10.40
2023-01-03T22:57:51.264Z,10.80
2023-01-03T23:00:23.858Z,10.70
2023-01-03T23:02:56.331Z,10.70
2023-01-03T23:05:28.775Z,10.70
2023-01-03T23:08:01.432Z,10.60
2023-01-03T23:10:33.979Z,10.60
2023-01-03T23:13:06.789Z,10.50
2023-01-03T23:15:39.372Z,10.50
2023-01-03T23:18:11.735Z,10.50
2023-01-03T23:20:49.664Z,10.50
2023-01-03T23:23:22.240Z,10.50
2023-01-03T23:25:54.716Z,10.40
2023-01-03T23:28:28.323Z,10.40
2023-01-03T23:31:04.809Z,10.40
2023-01-03T23:33:37.734Z,10.40
2023-01-03T23:36:17.826Z,10.40
2023-01-03T23:38:50.283Z,10.40
2023-01-03T23:41:22.833Z,10.40
2023-01-03T23:43:55.384Z,10.40
2023-01-03T23:46:27.941Z,10.40
2023-01-03T23:49:00.786Z,10.40
2023-01-03T23:51:33.437Z,10.40
2023-01-03T23:54:06.368Z,10.40
2023-01-03T23:56:39.012Z,10.40
2023-01-03T23:59:11.628Z,10.30
